createdAt,value
2019-03-28T00:03:20.888Z,102018.34
2019-03-28T00:09:00.027Z,102010.86
2019-03-28T00:14:39.052Z,102020.86
2019-03-28T00:17:47.931Z,102021.69
2019-03-28T00:23:38.495Z,102030.35
2019-03-28T00:29:09.719Z,102019.73
2019-03-28T00:31:39.551Z,102019.64
2019-03-28T00:34:28.158Z,102020.39
2019-03-28T00:39:37.847Z,101990.73
2019-03-28T00:42:26.503Z,102012.30
2019-03-28T00:44:56.680Z,102014.85
2019-03-28T00:47:45.567Z,102027.09
2019-03-28T00:50:15.495Z,102022.20
2019-03-28T00:52:45.615Z,102023.91
2019-03-28T01:01:19.961Z,102013.80
2019-03-28T01:03:49.868Z,102020.75
2019-03-28T01:06:58.756Z,102022.45
2019-03-28T01:12:37.867Z,102021.08
2019-03-28T01:15:26.678Z,102021.08
2019-03-28T01:17:56.603Z,102037.69
2019-03-28T01:20:26.488Z,102034.57
2019-03-28T01:26:05.503Z,102031.13
2019-03-28T01:28:35.373Z,102022.35
2019-03-28T01:31:05.496Z,102024.56
2019-03-28T01:33:35.338Z,102026.29
2019-03-28T01:36:05.506Z,102023.30
2019-03-28T01:38:55.703Z,102016.32
2019-03-28T01:41:25.538Z,102019.36
2019-03-28T01:43:55.566Z,102020.26
2019-03-28T01:46:25.392Z,102021.98
2019-03-28T01:48:55.373Z,102017.14
2019-03-28T01:54:41.647Z,102023.70
2019-03-28T01:57:12.718Z,102027.64
2019-03-28T01:59:43.226Z,102032.89
2019-03-28T02:02:32.070Z,102031.16
2019-03-28T02:05:01.904Z,102039.05
2019-03-28T02:07:31.967Z,102044.28
2019-03-28T02:10:20.796Z,102038.62
2019-03-28T02:15:46.077Z,102024.21
2019-03-28T02:21:25.201Z,102018.98
2019-03-28T02:23:55.128Z,102020.28
2019-03-28T02:26:24.967Z,102025.94
2019-03-28T02:28:54.814Z,102027.70
2019-03-28T02:31:24.706Z,102035.14
2019-03-28T02:34:33.732Z,102046.98
2019-03-28T02:37:03.556Z,102033.89
2019-03-28T02:39:33.754Z,102045.30
2019-03-28T02:42:03.554Z,102046.14
2019-03-28T02:44:33.423Z,102048.34
2019-03-28T02:47:03.253Z,102045.27
2019-03-28T02:49:33.315Z,102049.20
2019-03-28T02:52:03.154Z,102055.80
2019-03-28T02:54:33.171Z,102066.66
2019-03-28T03:00:12.467Z,102078.44
2019-03-28T03:02:42.377Z,102068.02
2019-03-28T03:05:31.123Z,102082.78
2019-03-28T03:11:20.455Z,102089.28
2019-03-28T03:14:09.155Z,102094.95
2019-03-28T03:16:39.213Z,102046.38
2019-03-28T03:19:09.041Z,102042.88
2019-03-28T03:21:39.001Z,102102.76
2019-03-28T03:27:17.967Z,102095.77
2019-03-28T03:29:47.796Z,102090.08
2019-03-28T03:32:17.810Z,102092.22
2019-03-28T03:34:48.115Z,102091.36
2019-03-28T03:37:17.947Z,102090.45
2019-03-28T03:39:48.051Z,102089.55
2019-03-28T03:42:17.863Z,102092.62
2019-03-28T03:48:07.517Z,102093.05
2019-03-28T03:50:37.589Z,102098.70
2019-03-28T03:53:26.243Z,102100.46
2019-03-28T03:55:56.100Z,102088.63
2019-03-28T03:58:26.215Z,102086.89
2019-03-28T04:00:56.084Z,102027.92
2019-03-28T04:03:26.075Z,102093.45
2019-03-28T04:05:55.916Z,102018.38
2019-03-28T04:08:27.005Z,102093.50
2019-03-28T04:10:57.259Z,102098.72
2019-03-28T04:13:28.704Z,102097.41
2019-03-28T04:15:58.968Z,102101.81
2019-03-28T04:18:47.574Z,102103.66
2019-03-28T04:24:26.815Z,102118.94
2019-03-28T04:27:15.532Z,102114.98
2019-03-28T04:29:45.382Z,102126.31
2019-03-28T04:32:15.427Z,102134.66
2019-03-28T04:37:54.938Z,102141.22
2019-03-28T04:40:45.087Z,102149.51
2019-03-28T04:43:15.155Z,102148.69
2019-03-28T04:48:56.407Z,102155.20
2019-03-28T04:51:26.392Z,102154.34
2019-03-28T04:54:16.534Z,102156.97
2019-03-28T04:56:46.910Z,102150.80
2019-03-28T04:59:16.798Z,102156.89
2019-03-28T05:02:00.895Z,102146.39
2019-03-28T05:04:20.962Z,102144.59
2019-03-28T05:09:56.307Z,102137.58
2019-03-28T05:12:26.188Z,102140.17
2019-03-28T05:14:56.114Z,102142.34
2019-03-28T05:17:25.949Z,102145.81
2019-03-28T05:23:03.038Z,102141.84
2019-03-28T05:25:33.231Z,102144.44
2019-03-28T05:28:03.074Z,102089.34
2019-03-28T05:30:33.133Z,102142.63
2019-03-28T05:36:08.973Z,102129.88
2019-03-28T05:38:38.799Z,102139.92
2019-03-28T05:44:04.664Z,102146.88
2019-03-28T05:46:34.626Z,102137.30
2019-03-28T05:49:06.504Z,102080.98
2019-03-28T05:54:51.135Z,102164.38
2019-03-28T05:57:21.048Z,102170.87
2019-03-28T06:02:46.590Z,102176.48
2019-03-28T06:05:35.349Z,102183.48
2019-03-28T06:08:05.187Z,102179.89
2019-03-28T06:13:44.218Z,102184.20
2019-03-28T06:16:14.234Z,102189.82
2019-03-28T06:21:32.934Z,102182.28
2019-03-28T06:24:02.973Z,102175.70
2019-03-28T06:26:51.675Z,102176.14
2019-03-28T06:29:24.012Z,102182.69
2019-03-28T06:31:55.418Z,102179.18
2019-03-28T06:34:24.782Z,102178.77
2019-03-28T06:36:54.659Z,102182.22
2019-03-28T06:39:24.848Z,102186.56
2019-03-28T06:42:13.602Z,102196.17
2019-03-28T06:44:43.410Z,102187.44
2019-03-28T06:47:13.437Z,102183.94
2019-03-28T06:49:43.277Z,102144.84
2019-03-28T06:52:13.106Z,102190.42
2019-03-28T06:55:03.281Z,102185.94
2019-03-28T06:57:33.126Z,102178.38
2019-03-28T07:00:21.741Z,102179.11
2019-03-28T07:02:51.602Z,102168.05
2019-03-28T07:05:40.122Z,102183.44
2019-03-28T07:14:06.634Z,102135.68
2019-03-28T07:20:09.009Z,102196.88
2019-03-28T07:22:38.052Z,102207.30
2019-03-28T07:25:07.988Z,102214.59
2019-03-28T07:30:33.771Z,102214.30
2019-03-28T07:33:22.543Z,102095.54
2019-03-28T07:35:52.708Z,102205.50
2019-03-28T07:38:34.137Z,102203.78
2019-03-28T07:41:16.447Z,102203.78
2019-03-28T07:47:15.358Z,102221.13
2019-03-28T07:49:45.767Z,102223.67
2019-03-28T07:52:34.442Z,102220.86
2019-03-28T07:55:43.868Z,102220.86
2019-03-28T07:58:35.590Z,102217.06
2019-03-28T08:03:47.295Z,102230.05
2019-03-28T08:09:21.426Z,102229.09
2019-03-28T08:11:52.598Z,102228.89
2019-03-28T08:15:01.733Z,102231.87
2019-03-28T08:26:42.170Z,102248.13
2019-03-28T08:35:02.900Z,102262.08
2019-03-28T08:46:50.745Z,102263.79
2019-03-28T08:49:22.125Z,102263.79
2019-03-28T08:51:54.542Z,102267.75
2019-03-28T08:57:14.718Z,102276.77
2019-03-28T08:59:45.050Z,102275.59
2019-03-28T09:02:15.009Z,102279.81
2019-03-28T09:04:45.073Z,102274.53
2019-03-28T09:07:17.408Z,102280.98
2019-03-28T09:09:46.627Z,102263.72
2019-03-28T09:14:52.321Z,102281.37
2019-03-28T09:17:23.815Z,102276.54
2019-03-28T09:19:53.870Z,102286.98
2019-03-28T09:22:23.739Z,102285.19
2019-03-28T09:24:53.602Z,102293.11
2019-03-28T09:30:51.416Z,102286.76
2019-03-28T09:33:21.577Z,102287.98
2019-03-28T09:35:51.501Z,102287.91
2019-03-28T09:38:40.239Z,102280.34
2019-03-28T09:44:11.849Z,102295.75
2019-03-28T09:46:41.685Z,102298.46
2019-03-28T09:49:11.588Z,102300.11
2019-03-28T09:51:41.452Z,102312.80
2019-03-28T09:54:11.414Z,102284.12
2019-03-28T09:56:41.315Z,102251.53
2019-03-28T09:59:11.310Z,102297.13
2019-03-28T10:04:37.140Z,102293.92
2019-03-28T10:07:07.019Z,102297.09
2019-03-28T10:09:55.977Z,102302.69
2019-03-28T10:12:25.828Z,102304.41
2019-03-28T10:14:55.697Z,102302.09
2019-03-28T10:17:25.565Z,102297.47
2019-03-28T10:19:55.529Z,102297.22
2019-03-28T10:22:25.378Z,102296.73
2019-03-28T10:24:55.204Z,102291.98
2019-03-28T10:27:25.053Z,102283.66
2019-03-28T10:29:54.962Z,102293.22
2019-03-28T10:32:24.894Z,102289.25
2019-03-28T10:34:54.828Z,102290.40
2019-03-28T10:37:43.574Z,102225.27
2019-03-28T10:40:13.410Z,102288.90
2019-03-28T10:42:43.466Z,102292.95
2019-03-28T10:45:13.370Z,102302.34
2019-03-28T10:47:43.313Z,102297.70
2019-03-28T10:50:52.242Z,102296.02
2019-03-28T10:53:22.292Z,102294.79
2019-03-28T10:55:52.152Z,102295.53
2019-03-28T10:58:21.992Z,102288.20
2019-03-28T11:00:54.648Z,102282.81
2019-03-28T11:06:12.212Z,102290.50
2019-03-28T11:08:42.912Z,102291.91
2019-03-28T11:11:12.814Z,102294.11
2019-03-28T11:13:42.833Z,102286.43
2019-03-28T11:19:01.479Z,102288.44
2019-03-28T11:21:34.326Z,102292.19
2019-03-28T11:24:03.636Z,102244.43
2019-03-28T11:26:33.466Z,102294.70
2019-03-28T11:31:57.767Z,102296.97
2019-03-28T11:34:27.759Z,102300.96
2019-03-28T11:36:58.526Z,102290.48
2019-03-28T11:42:18.297Z,102281.41
2019-03-28T11:44:48.107Z,102284.16
2019-03-28T11:47:18.022Z,102279.15
2019-03-28T11:49:47.876Z,102173.53
2019-03-28T11:52:17.723Z,102281.70
2019-03-28T11:54:47.612Z,102266.11
2019-03-28T11:57:17.493Z,102284.98
2019-03-28T11:59:47.459Z,102283.07
2019-03-28T12:02:20.321Z,102286.22
2019-03-28T12:04:49.224Z,102282.00
2019-03-28T12:07:19.067Z,102282.92
2019-03-28T12:09:49.603Z,102293.52
2019-03-28T12:12:19.507Z,102292.94
2019-03-28T12:14:49.405Z,102304.00
2019-03-28T12:17:19.295Z,102237.03
2019-03-28T12:19:49.271Z,102293.20
2019-03-28T12:22:19.320Z,102281.59
2019-03-28T12:24:49.201Z,102285.42
2019-03-28T12:27:19.158Z,102276.16
2019-03-28T12:29:49.810Z,102274.28
2019-03-28T12:32:20.857Z,102270.48
2019-03-28T12:34:50.717Z,102265.48
2019-03-28T12:37:39.310Z,102268.84
2019-03-28T12:43:05.631Z,102263.69
2019-03-28T12:45:35.452Z,102255.64
2019-03-28T12:48:05.287Z,102217.28
2019-03-28T12:50:58.950Z,102264.47
2019-03-28T12:53:25.611Z,102259.73
2019-03-28T12:55:55.439Z,102252.53
2019-03-28T12:58:25.396Z,102245.30
2019-03-28T13:00:55.441Z,102253.95
2019-03-28T13:03:25.280Z,102251.63
2019-03-28T13:05:55.466Z,102250.84
2019-03-28T13:08:25.321Z,102214.73
2019-03-28T13:10:55.331Z,102252.92
2019-03-28T13:16:00.539Z,102254.00
2019-03-28T13:18:30.565Z,102253.31
2019-03-28T13:21:12.679Z,102238.36
2019-03-28T13:23:32.007Z,102247.72
2019-03-28T13:26:01.856Z,102239.16
2019-03-28T13:28:50.580Z,102243.45
2019-03-28T13:31:20.420Z,102252.52
2019-03-28T13:34:08.925Z,102238.77
2019-03-28T13:36:38.747Z,102234.41
2019-03-28T13:39:09.016Z,102237.16
2019-03-28T13:41:38.824Z,102236.55
2019-03-28T13:44:12.030Z,102240.11
2019-03-28T13:46:40.400Z,102241.83
2019-03-28T13:49:10.261Z,102165.84
2019-03-28T13:51:40.090Z,102241.12
2019-03-28T13:54:09.927Z,102236.42
2019-03-28T13:56:39.795Z,102236.32
2019-03-28T13:59:28.532Z,102207.13
2019-03-28T14:01:58.535Z,102239.18
2019-03-28T14:04:28.348Z,102226.86
2019-03-28T14:06:58.241Z,102226.30
2019-03-28T14:09:28.055Z,102228.08
2019-03-28T14:11:58.115Z,102232.88
2019-03-28T14:14:27.985Z,102233.33
2019-03-28T14:16:57.847Z,102231.05
2019-03-28T14:19:27.694Z,102228.00
2019-03-28T14:21:57.834Z,102236.84
2019-03-28T14:24:27.701Z,102243.17
2019-03-28T14:26:57.920Z,102239.91
2019-03-28T14:29:29.982Z,102253.48
2019-03-28T14:31:59.990Z,102238.56
2019-03-28T14:34:29.935Z,102229.92
2019-03-28T14:36:59.887Z,102221.78
2019-03-28T14:39:29.946Z,102220.84
2019-03-28T14:41:59.753Z,102178.91
2019-03-28T14:44:29.865Z,102232.55
2019-03-28T14:46:59.807Z,102217.26
2019-03-28T14:49:29.702Z,102223.55
2019-03-28T14:51:59.585Z,102212.45
2019-03-28T14:54:29.410Z,102220.08
2019-03-28T14:57:00.275Z,102125.86
2019-03-28T14:59:51.289Z,102215.95
2019-03-28T15:02:21.147Z,102204.96
2019-03-28T15:04:51.294Z,102209.11
2019-03-28T15:07:21.118Z,102162.50
2019-03-28T15:09:53.299Z,102214.85
2019-03-28T15:12:23.200Z,102216.61
2019-03-28T15:14:53.980Z,102219.15
2019-03-28T15:17:24.122Z,102222.00
2019-03-28T15:19:53.949Z,102209.16
2019-03-28T15:22:24.424Z,102208.87
2019-03-28T15:24:54.265Z,102210.19
2019-03-28T15:27:24.413Z,102205.89
2019-03-28T15:29:54.303Z,102132.33
2019-03-28T15:32:24.396Z,102207.31
2019-03-28T15:38:03.406Z,102193.55
2019-03-28T15:40:52.490Z,102191.84
2019-03-28T15:43:22.346Z,102190.62
2019-03-28T15:45:52.230Z,102200.02
2019-03-28T15:48:22.101Z,102193.86
2019-03-28T15:50:51.942Z,102200.48
2019-03-28T15:53:21.917Z,102191.61
2019-03-28T15:55:51.777Z,102192.64
2019-03-28T15:58:23.390Z,102201.12
2019-03-28T16:00:53.316Z,102195.67
2019-03-28T16:03:23.291Z,102193.77
2019-03-28T16:05:58.451Z,102150.79
2019-03-28T16:08:24.751Z,102201.84
2019-03-28T16:10:54.844Z,102208.11
2019-03-28T16:13:24.745Z,102213.45
2019-03-28T16:15:54.957Z,102203.72
2019-03-28T16:18:24.800Z,102213.23
2019-03-28T16:20:54.773Z,102205.91
2019-03-28T16:23:24.602Z,102204.64
2019-03-28T16:25:54.466Z,102208.66
2019-03-28T16:31:33.477Z,102197.14
2019-03-28T16:34:22.096Z,102159.97
2019-03-28T16:36:51.960Z,102218.81
2019-03-28T16:39:21.851Z,102212.30
2019-03-28T16:41:51.775Z,102211.25
2019-03-28T16:44:21.619Z,102218.48
2019-03-28T16:46:51.655Z,102203.15
2019-03-28T16:49:21.495Z,102199.94
2019-03-28T16:51:51.818Z,102205.84
2019-03-28T16:54:23.019Z,102205.89
2019-03-28T16:56:53.727Z,102196.47
2019-03-28T16:59:24.761Z,102140.41
2019-03-28T17:01:54.613Z,102198.66
2019-03-28T17:04:24.540Z,102207.16
2019-03-28T17:06:54.391Z,102197.67
2019-03-28T17:09:43.099Z,102203.95
2019-03-28T17:12:13.043Z,102204.44
2019-03-28T17:14:42.888Z,102205.90
2019-03-28T17:17:12.699Z,102209.02
2019-03-28T17:19:43.034Z,102207.46
2019-03-28T17:22:13.291Z,102204.82
2019-03-28T17:24:43.161Z,102201.47
2019-03-28T17:27:13.136Z,102205.27
2019-03-28T17:29:43.105Z,102201.42
2019-03-28T17:32:13.284Z,102208.14
2019-03-28T17:34:45.952Z,102201.17
2019-03-28T17:37:15.091Z,102199.17
2019-03-28T17:39:45.127Z,102200.56
2019-03-28T17:42:14.969Z,102206.00
2019-03-28T17:44:45.044Z,102204.34
2019-03-28T17:47:14.961Z,102206.19
2019-03-28T17:52:54.404Z,102146.22
2019-03-28T17:55:24.447Z,102207.94
2019-03-28T17:57:54.330Z,102178.81
2019-03-28T18:00:27.724Z,102204.50
2019-03-28T18:03:08.467Z,102213.77
2019-03-28T18:05:27.706Z,102211.20
2019-03-28T18:07:57.621Z,102204.61
2019-03-28T18:10:27.509Z,102208.16
2019-03-28T18:13:16.125Z,102211.27
2019-03-28T18:15:46.484Z,102204.45
2019-03-28T18:18:16.380Z,102220.97
2019-03-28T18:21:05.072Z,102208.77
2019-03-28T18:23:34.900Z,102221.05
2019-03-28T18:28:53.610Z,102222.17
2019-03-28T18:31:23.442Z,102216.89
2019-03-28T18:34:12.421Z,102227.98
2019-03-28T18:36:43.571Z,102221.45
2019-03-28T18:39:13.403Z,102220.14
2019-03-28T18:44:18.693Z,102220.31
2019-03-28T18:47:08.944Z,102217.20
2019-03-28T18:49:38.793Z,102220.78
2019-03-28T18:52:08.814Z,102229.09
2019-03-28T18:54:38.650Z,102225.27
2019-03-28T18:57:08.907Z,102223.55
2019-03-28T18:59:38.968Z,102224.39
2019-03-28T19:02:09.270Z,102227.50
2019-03-28T19:04:39.148Z,102221.95
2019-03-28T19:10:44.201Z,102157.48
2019-03-28T19:13:14.165Z,102222.18
2019-03-28T19:16:02.764Z,102224.00
2019-03-28T19:18:44.415Z,102221.83
2019-03-28T19:21:25.012Z,102215.41
2019-03-28T19:23:54.867Z,102215.41
2019-03-28T19:26:25.140Z,102227.73
2019-03-28T19:28:56.312Z,102230.83
2019-03-28T19:31:31.591Z,102177.86
2019-03-28T19:34:20.281Z,102211.70
2019-03-28T19:37:10.801Z,102217.84
2019-03-28T19:42:16.358Z,102212.70
2019-03-28T19:44:48.237Z,102218.94
2019-03-28T19:47:18.257Z,102214.16
2019-03-28T19:49:48.300Z,102221.73
2019-03-28T19:52:37.081Z,102180.61
2019-03-28T19:55:07.528Z,102215.30
2019-03-28T19:57:38.150Z,102213.19
2019-03-28T20:00:09.536Z,102219.83
2019-03-28T20:02:39.465Z,102209.42
2019-03-28T20:05:09.850Z,102217.34
2019-03-28T20:07:39.882Z,102210.81
2019-03-28T20:10:16.357Z,102209.56
2019-03-28T20:12:41.761Z,102218.33
2019-03-28T20:15:50.775Z,102220.55
2019-03-28T20:18:21.194Z,102215.80
2019-03-28T20:20:51.098Z,102226.37
2019-03-28T20:23:22.129Z,102214.18
2019-03-28T20:25:53.901Z,102167.41
2019-03-28T20:28:26.671Z,102222.98
2019-03-28T20:33:44.742Z,102227.44
2019-03-28T20:36:36.235Z,102224.89
2019-03-28T20:38:49.935Z,102234.51
2019-03-28T20:41:36.722Z,102230.59
2019-03-28T20:47:14.192Z,102242.45
2019-03-28T20:49:46.659Z,102239.84
2019-03-28T20:52:16.021Z,102244.70
2019-03-28T20:54:46.103Z,102236.80
2019-03-28T20:57:15.983Z,102248.64
2019-03-28T20:59:46.893Z,102258.30
2019-03-28T21:02:17.338Z,102244.33
2019-03-28T21:04:47.250Z,102242.59
2019-03-28T21:07:35.942Z,102236.54
2019-03-28T21:10:06.599Z,102238.34
2019-03-28T21:12:36.445Z,102240.99
2019-03-28T21:15:07.206Z,102250.69
2019-03-28T21:17:37.044Z,102245.48
2019-03-28T21:23:05.188Z,102183.88
2019-03-28T21:25:53.900Z,102231.13
2019-03-28T21:28:25.000Z,102239.45
2019-03-28T21:30:58.762Z,102241.23
2019-03-28T21:33:46.139Z,102232.52
2019-03-28T21:36:29.102Z,102230.30
2019-03-28T21:38:47.592Z,102232.08
2019-03-28T21:41:17.537Z,102226.81
2019-03-28T21:43:47.440Z,102222.00
2019-03-28T21:46:17.595Z,102218.52
2019-03-28T21:48:47.456Z,102214.59
2019-03-28T21:51:17.664Z,102222.92
2019-03-28T21:53:58.979Z,102220.73
2019-03-28T21:56:29.230Z,102229.94
2019-03-28T21:58:59.058Z,102218.11
2019-03-28T22:01:47.706Z,102221.65
2019-03-28T22:04:17.992Z,102217.75
2019-03-28T22:06:48.954Z,102222.19
2019-03-28T22:09:19.458Z,102209.05
2019-03-28T22:11:49.305Z,102211.72
2019-03-28T22:14:19.139Z,102207.33
2019-03-28T22:16:49.860Z,102215.22
2019-03-28T22:19:19.770Z,102217.84
2019-03-28T22:21:50.407Z,102217.02
2019-03-28T22:24:20.266Z,102204.38
2019-03-28T22:26:50.536Z,102198.71
2019-03-28T22:32:29.570Z,102196.98
2019-03-28T22:37:48.206Z,102191.84
2019-03-28T22:40:18.194Z,102187.02
2019-03-28T22:42:48.134Z,102192.27
2019-03-28T22:45:18.130Z,102189.23
2019-03-28T22:47:49.982Z,102194.09
2019-03-28T22:50:19.833Z,102195.38
2019-03-28T22:52:49.904Z,102198.89
2019-03-28T22:55:19.800Z,102188.38
2019-03-28T22:57:49.847Z,102189.28
2019-03-28T23:03:29.266Z,102191.91
2019-03-28T23:05:59.214Z,102178.77
2019-03-28T23:11:04.188Z,102175.28
2019-03-28T23:13:34.113Z,102171.80
2019-03-28T23:16:03.940Z,102175.74
2019-03-28T23:18:33.858Z,102173.63
2019-03-28T23:21:03.723Z,102172.74
2019-03-28T23:23:33.704Z,102173.20
2019-03-28T23:28:59.830Z,102159.66
2019-03-28T23:31:29.675Z,102154.86
2019-03-28T23:33:59.802Z,102152.67
2019-03-28T23:36:37.338Z,102143.94
2019-03-28T23:39:26.020Z,102146.56
2019-03-28T23:42:17.636Z,102149.19
2019-03-28T23:44:46.240Z,102136.06
2019-03-28T23:47:16.077Z,102149.19
2019-03-28T23:50:04.661Z,102140.00
2019-03-28T23:52:34.533Z,102147.48
2019-03-28T23:55:04.431Z,102143.08
2019-03-28T23:57:34.443Z,102144.02
